Time;durP1;ratioP1;P1;durP2;ratioP2;P2;SDS_P1;SDS_P2;PMS_P1;PMS_P2;Temp;Humidity;BMP_temperature;BMP_pressure;BME280_temperature;BME280_humidity;BME280_pressure;Samples;Min_cycle;Max_cycle;Signal;HPM_P1;HPM_P2
2021/12/21 00:02:22;;;;;;;5.30;1.60;;;-0.20;99.90;;;;;;5113384;28;20437;-70
2021/12/21 00:04:48;;;;;;;5.10;1.40;;;-0.20;99.90;;;;;;5110875;28;20446;-70
2021/12/21 00:07:13;;;;;;;3.03;1.30;;;-0.20;99.90;;;;;;5112101;28;20119;-70
2021/12/21 00:09:39;;;;;;;3.05;1.20;;;-0.20;99.90;;;;;;5110194;28;20032;-70
2021/12/21 00:12:05;;;;;;;2.38;1.00;;;-0.20;99.90;;;;;;5092646;28;20035;-70
2021/12/21 00:25:17;;;;;;;4.22;1.70;;;-0.40;99.90;;;;;;5112310;28;20422;-70
2021/12/21 00:27:45;;;;;;;2.97;1.10;;;-0.40;99.90;;;;;;5095712;28;20038;-70
2021/12/21 00:30:11;;;;;;;2.88;1.40;;;-0.40;99.90;;;;;;5091250;28;20031;-70
2021/12/21 00:32:36;;;;;;;4.07;1.40;;;-0.50;99.90;;;;;;5110948;28;20031;-70
2021/12/21 00:35:03;;;;;;;3.15;1.00;;;-0.50;99.90;;;;;;5094047;28;20046;-70
2021/12/21 00:37:29;;;;;;;4.22;1.13;;;-0.50;99.90;;;;;;5112299;28;20077;-70
2021/12/21 00:39:55;;;;;;;3.58;1.50;;;-0.50;99.90;;;;;;5093667;28;20047;-70
2021/12/21 00:42:20;;;;;;;2.97;1.10;;;-0.50;99.90;;;;;;5095659;28;20032;-70
2021/12/21 00:44:46;;;;;;;2.63;1.30;;;-0.50;99.90;;;;;;5108604;28;20043;-70
2021/12/21 00:47:14;;;;;;;4.38;1.42;;;-0.50;99.90;;;;;;5095436;28;20035;-70
2021/12/21 00:49:45;;;;;;;4.70;1.45;;;-0.50;99.90;;;;;;5109976;28;20088;-70
2021/12/21 00:52:11;;;;;;;2.83;1.33;;;-0.50;99.90;;;;;;5112388;28;20039;-70
2021/12/21 00:54:36;;;;;;;3.80;1.20;;;-0.50;99.90;;;;;;5094303;28;20112;-70
2021/12/21 00:57:04;;;;;;;4.30;1.10;;;-0.60;99.90;;;;;;5112551;28;20062;-70
2021/12/21 00:59:30;;;;;;;2.40;1.17;;;-0.70;99.90;;;;;;5111152;28;20080;-70
2021/12/21 01:01:56;;;;;;;4.65;1.70;;;-0.70;99.90;;;;;;5110989;28;20040;-70
2021/12/21 01:04:28;;;;;;;2.53;1.15;;;-0.70;99.90;;;;;;5094373;28;20032;-70
2021/12/21 01:12:40;;;;;;;4.70;1.38;;;-0.80;99.90;;;;;;5079986;28;20039;-70
2021/12/21 01:18:21;;;;;;;4.07;1.77;;;-0.80;99.90;;;;;;5111967;28;20040;-70
2021/12/21 01:21:03;;;;;;;4.13;1.50;;;-0.80;99.90;;;;;;5098307;28;20048;-70
2021/12/21 01:36:34;;;;;;;5.80;2.30;;;-0.90;99.90;;;;;;5111781;28;20097;-70
2021/12/21 01:49:49;;;;;;;6.82;2.33;;;-0.80;99.90;;;;;;5110545;28;20073;-70
2021/12/21 01:52:18;;;;;;;5.20;1.88;;;-0.90;99.90;;;;;;5127431;28;20487;-70
2021/12/21 01:54:43;;;;;;;6.38;2.63;;;-0.90;99.90;;;;;;5109765;28;20543;-70
2021/12/21 01:57:10;;;;;;;6.07;2.47;;;-0.90;99.90;;;;;;5113744;28;20067;-70
2021/12/21 01:59:37;;;;;;;7.32;2.67;;;-0.90;99.90;;;;;;5097798;28;20406;-70
2021/12/21 02:02:05;;;;;;;6.40;2.15;;;-0.90;99.90;;;;;;5093959;28;20436;-70
2021/12/21 02:04:30;;;;;;;4.25;1.92;;;-0.90;99.90;;;;;;5097054;28;20028;-70
2021/12/21 02:06:56;;;;;;;5.95;2.38;;;-0.90;99.90;;;;;;5112771;28;20032;-70
2021/12/21 02:09:27;;;;;;;5.60;2.00;;;-0.90;99.90;;;;;;5115389;28;20024;-70
2021/12/21 02:11:53;;;;;;;5.60;2.20;;;-0.90;99.90;;;;;;5095654;28;20449;-70
2021/12/21 02:14:18;;;;;;;5.82;2.22;;;-0.80;99.90;;;;;;5112007;28;20127;-70
2021/12/21 02:17:00;;;;;;;7.30;2.85;;;-0.90;99.90;;;;;;5114287;28;20031;-70
2021/12/21 02:19:38;;;;;;;6.70;2.20;;;-0.90;99.90;;;;;;5097062;28;20395;-70
2021/12/21 02:22:11;;;;;;;6.25;2.20;;;-1.00;99.90;;;;;;5114552;28;20657;-70
2021/12/21 02:24:46;;;;;;;5.13;2.13;;;-1.00;99.90;;;;;;5114316;28;20387;-70
2021/12/21 02:27:26;;;;;;;6.07;2.20;;;-1.00;99.90;;;;;;5098181;28;20036;-70
2021/12/21 02:29:53;;;;;;;6.05;2.22;;;-1.00;99.90;;;;;;5095574;28;20032;-70
2021/12/21 02:32:19;;;;;;;4.18;1.92;;;-1.10;99.90;;;;;;5096450;28;20047;-70
2021/12/21 02:34:45;;;;;;;6.88;2.20;;;-1.10;99.90;;;;;;5113918;28;20133;-70
2021/12/21 02:37:11;;;;;;;5.88;2.78;;;-1.10;99.90;;;;;;5114837;28;20585;-69
2021/12/21 02:39:38;;;;;;;5.07;2.30;;;-1.10;99.90;;;;;;5097060;28;20419;-69
2021/12/21 02:42:05;;;;;;;6.00;2.60;;;-1.10;99.90;;;;;;5111266;28;20047;-70
2021/12/21 02:44:31;;;;;;;7.40;2.40;;;-1.10;99.90;;;;;;5113025;28;20032;-70
2021/12/21 02:46:57;;;;;;;5.80;2.13;;;-1.00;99.90;;;;;;5113895;28;20499;-69
2021/12/21 02:49:23;;;;;;;5.90;1.98;;;-1.10;99.90;;;;;;5097004;28;20038;-69
2021/12/21 02:51:49;;;;;;;5.82;2.55;;;-1.10;99.90;;;;;;5096792;28;20480;-70
2021/12/21 02:54:16;;;;;;;6.15;2.22;;;-1.10;99.90;;;;;;5112376;28;20046;-70
2021/12/21 02:56:43;;;;;;;4.75;1.88;;;-1.10;99.90;;;;;;5114914;28;20040;-70
2021/12/21 02:59:09;;;;;;;6.25;2.25;;;-1.10;99.90;;;;;;5111881;28;20040;-70
2021/12/21 03:01:36;;;;;;;6.07;2.30;;;-1.10;99.90;;;;;;5096823;28;20476;-70
2021/12/21 03:04:01;;;;;;;5.47;2.70;;;-1.10;99.90;;;;;;5094186;28;20046;-70
2021/12/21 03:13:53;;;;;;;5.18;2.40;;;-1.20;99.90;;;;;;5113427;28;20562;-70
2021/12/21 03:14:43;;;;;;;5.85;2.97;;;-1.20;99.90;;;;;;5103892;28;20039;-69
2021/12/21 03:17:09;;;;;;;6.57;3.15;;;-1.20;99.90;;;;;;5112326;28;20139;-69
2021/12/21 03:19:35;;;;;;;6.32;3.13;;;-1.20;99.90;;;;;;5111339;28;20106;-69
2021/12/21 03:22:00;;;;;;;5.45;2.55;;;-1.30;99.90;;;;;;5112750;28;20039;-69
2021/12/21 03:24:26;;;;;;;6.78;2.83;;;-1.30;99.90;;;;;;5109717;28;20115;-70
2021/12/21 03:26:52;;;;;;;5.13;2.75;;;-1.30;99.90;;;;;;5114037;28;20480;-69
2021/12/21 03:29:17;;;;;;;7.78;3.13;;;-1.40;99.90;;;;;;5113207;28;20027;-69
2021/12/21 03:31:43;;;;;;;6.68;3.03;;;-1.40;99.90;;;;;;5111402;28;20028;-69
2021/12/21 03:34:09;;;;;;;6.18;2.88;;;-1.40;99.90;;;;;;5092618;28;20464;-69
2021/12/21 03:36:35;;;;;;;7.00;2.97;;;-1.40;99.90;;;;;;5096813;28;20047;-69
2021/12/21 03:39:10;;;;;;;4.50;2.90;;;-1.40;99.90;;;;;;5112719;28;20046;-69
2021/12/21 03:41:45;;;;;;;6.50;2.78;;;-1.40;99.90;;;;;;5095720;28;20130;-69
2021/12/21 03:44:10;;;;;;;6.93;3.15;;;-1.40;99.90;;;;;;5094649;28;20039;-69
2021/12/21 03:46:44;;;;;;;6.05;2.92;;;-1.50;99.90;;;;;;5111473;28;20502;-69
2021/12/21 03:49:38;;;;;;;4.30;2.40;;;-1.50;99.90;;;;;;5112795;28;20043;-69
2021/12/21 03:51:56;;;;;;;6.22;2.83;;;-1.50;99.90;;;;;;5109353;28;20458;-69
2021/12/21 03:54:21;;;;;;;6.30;3.22;;;-1.50;99.90;;;;;;5093356;28;20027;-69
2021/12/21 03:56:49;;;;;;;9.23;3.38;;;-1.50;99.90;;;;;;5093185;28;20028;-69
2021/12/21 03:59:15;;;;;;;7.03;3.13;;;-1.40;99.90;;;;;;5113154;28;20027;-69
2021/12/21 04:01:41;;;;;;;7.00;4.13;;;-1.40;99.90;;;;;;5094158;28;20118;-69
2021/12/21 04:04:08;;;;;;;7.13;3.72;;;-1.40;99.90;;;;;;5113253;28;20116;-69
2021/12/21 04:06:35;;;;;;;6.38;3.25;;;-1.30;99.90;;;;;;5111535;28;20491;-69
2021/12/21 04:09:02;;;;;;;6.80;3.25;;;-1.30;99.90;;;;;;5129588;27;20429;-69
2021/12/21 04:11:28;;;;;;;7.97;3.40;;;-1.30;99.90;;;;;;5091685;28;20116;-69
2021/12/21 04:13:54;;;;;;;8.52;3.55;;;-1.40;99.90;;;;;;5112983;28;20118;-69
2021/12/21 04:16:19;;;;;;;7.72;3.80;;;-1.40;99.90;;;;;;5109572;28;20046;-69
2021/12/21 04:18:45;;;;;;;7.00;3.22;;;-1.50;99.90;;;;;;5094642;28;20068;-69
2021/12/21 04:21:14;;;;;;;7.75;3.38;;;-1.50;99.90;;;;;;5093435;28;20088;-69
2021/12/21 04:23:41;;;;;;;7.95;3.30;;;-1.50;99.90;;;;;;5089728;28;20048;-69
2021/12/21 04:26:08;;;;;;;7.55;3.35;;;-1.50;99.90;;;;;;5082618;28;20039;-69
2021/12/21 04:28:34;;;;;;;8.20;3.53;;;-1.50;99.90;;;;;;5066955;28;20488;-69
2021/12/21 04:31:00;;;;;;;7.68;3.70;;;-1.60;99.90;;;;;;5083068;28;20032;-69
2021/12/21 04:33:26;;;;;;;6.90;3.08;;;-1.60;99.90;;;;;;5112579;28;20043;-69
2021/12/21 04:35:52;;;;;;;7.10;3.35;;;-1.60;99.90;;;;;;5098507;28;20036;-69
2021/12/21 04:38:27;;;;;;;7.13;3.33;;;-1.60;99.90;;;;;;5094994;28;20047;-69
2021/12/21 04:41:01;;;;;;;7.35;3.28;;;-1.60;99.90;;;;;;5093730;28;20035;-69
2021/12/21 04:43:27;;;;;;;8.90;3.00;;;-1.60;99.90;;;;;;5092077;28;20050;-69
2021/12/21 04:45:53;;;;;;;6.75;2.97;;;-1.60;99.90;;;;;;5108469;28;20032;-69
2021/12/21 04:48:18;;;;;;;6.18;2.72;;;-1.60;99.90;;;;;;5091855;28;20122;-69
2021/12/21 04:50:46;;;;;;;5.70;2.67;;;-1.60;99.90;;;;;;5089760;28;20040;-69
2021/12/21 04:53:12;;;;;;;6.30;2.78;;;-1.70;99.90;;;;;;5107554;28;20073;-69
2021/12/21 04:55:38;;;;;;;6.75;2.83;;;-1.60;99.90;;;;;;5104954;28;20117;-69
2021/12/21 04:58:04;;;;;;;5.72;2.70;;;-1.60;99.90;;;;;;5085627;28;20391;-69
2021/12/21 05:00:30;;;;;;;6.72;2.72;;;-1.60;99.90;;;;;;5111521;28;20058;-69
2021/12/21 05:02:56;;;;;;;6.40;2.72;;;-1.60;99.90;;;;;;5109082;28;20036;-69
2021/12/21 05:05:21;;;;;;;7.32;3.25;;;-1.60;99.90;;;;;;5109002;28;20043;-69
2021/12/21 05:07:53;;;;;;;7.32;2.88;;;-1.70;99.90;;;;;;5090196;28;20038;-69
2021/12/21 05:10:19;;;;;;;6.90;2.45;;;-1.80;99.90;;;;;;5093234;28;20056;-69
2021/12/21 05:12:45;;;;;;;7.05;2.97;;;-1.70;99.90;;;;;;5104309;28;20122;-69
2021/12/21 05:15:11;;;;;;;8.35;3.22;;;-1.70;99.90;;;;;;5107151;28;20139;-69
2021/12/21 05:17:37;;;;;;;7.28;2.97;;;-1.70;99.90;;;;;;5123787;27;20507;-69
2021/12/21 05:20:03;;;;;;;7.25;2.83;;;-1.60;99.90;;;;;;5107039;28;20535;-69
2021/12/21 05:22:29;;;;;;;5.18;2.40;;;-1.60;99.90;;;;;;5108871;28;20442;-69
2021/12/21 05:24:54;;;;;;;6.70;2.75;;;-1.60;99.90;;;;;;5091802;28;20035;-69
2021/12/21 05:27:21;;;;;;;6.47;2.78;;;-1.70;99.90;;;;;;5109448;28;20150;-69
2021/12/21 05:29:46;;;;;;;6.93;2.67;;;-1.70;99.90;;;;;;5091541;28;20031;-69
2021/12/21 05:32:12;;;;;;;7.38;2.80;;;-1.80;99.90;;;;;;5110582;28;20036;-69
2021/12/21 05:34:38;;;;;;;6.10;2.88;;;-1.80;99.90;;;;;;5105107;28;20036;-69
2021/12/21 05:37:07;;;;;;;5.80;2.80;;;-1.80;99.90;;;;;;5092459;28;20219;-69
2021/12/21 05:42:17;;;;;;;5.90;2.70;;;-1.80;99.90;;;;;;5105906;28;20044;-69
2021/12/21 05:44:43;;;;;;;7.80;2.95;;;-1.80;99.90;;;;;;5105797;28;20495;-69
2021/12/21 05:47:09;;;;;;;5.97;2.67;;;-1.80;99.90;;;;;;5093692;28;20407;-69
2021/12/21 05:49:35;;;;;;;10.48;3.13;;;-1.70;99.90;;;;;;5106797;28;20070;-69
2021/12/21 05:52:00;;;;;;;7.38;2.83;;;-1.70;99.90;;;;;;5105454;28;20065;-69
2021/12/21 05:54:26;;;;;;;5.93;2.58;;;-1.90;99.90;;;;;;5109802;28;20503;-69
2021/12/21 05:56:52;;;;;;;6.10;2.45;;;-1.80;99.90;;;;;;5110549;28;20062;-69
2021/12/21 05:59:17;;;;;;;5.63;2.25;;;-1.80;99.90;;;;;;5109402;28;20126;-69
2021/12/21 06:01:43;;;;;;;6.03;2.40;;;-1.80;99.90;;;;;;5109777;28;20032;-69
2021/12/21 06:04:08;;;;;;;6.90;2.50;;;-1.80;99.90;;;;;;5104650;28;20499;-69
2021/12/21 06:06:35;;;;;;;5.80;2.58;;;-1.80;99.90;;;;;;5094071;28;20051;-69
2021/12/21 06:09:08;;;;;;;7.10;2.58;;;-1.80;99.90;;;;;;5090111;28;20118;-69
2021/12/21 06:11:39;;;;;;;6.68;2.40;;;-1.80;99.90;;;;;;5093708;28;20031;-69
2021/12/21 06:14:17;;;;;;;6.35;2.55;;;-1.80;99.90;;;;;;5091192;28;21315;-69
2021/12/21 06:27:24;;;;;;;6.00;2.58;;;-2.00;99.90;;;;;;5108632;28;20451;-69
2021/12/21 06:29:49;;;;;;;5.60;2.40;;;-1.90;99.90;;;;;;5111268;28;20071;-69
2021/12/21 06:32:15;;;;;;;5.65;2.40;;;-1.90;99.90;;;;;;5106300;28;20031;-69
2021/12/21 06:34:41;;;;;;;5.93;2.67;;;-1.90;99.90;;;;;;5093336;28;20035;-69
2021/12/21 06:37:07;;;;;;;6.55;2.75;;;-1.90;99.90;;;;;;5104831;28;20048;-69
2021/12/21 06:39:33;;;;;;;7.30;2.38;;;-1.90;99.90;;;;;;5109238;28;20050;-69
2021/12/21 06:42:00;;;;;;;6.80;2.60;;;-1.90;99.90;;;;;;5076700;28;20036;-69
2021/12/21 06:44:25;;;;;;;6.75;2.58;;;-1.90;99.90;;;;;;5096673;28;20028;-69
2021/12/21 06:51:08;;;;;;;7.65;2.60;;;-2.00;99.90;;;;;;5112935;28;20032;-69
2021/12/21 06:52:27;;;;;;;7.30;2.53;;;-2.00;99.90;;;;;;5110600;28;20076;-69
2021/12/21 06:54:52;;;;;;;7.00;2.67;;;-2.00;99.90;;;;;;5113850;28;20124;-69
2021/12/21 06:57:18;;;;;;;8.60;2.70;;;-2.10;99.90;;;;;;5110719;28;20043;-69
2021/12/21 06:59:44;;;;;;;6.32;2.50;;;-2.10;99.90;;;;;;5105865;28;20043;-69
2021/12/21 07:02:10;;;;;;;5.95;2.60;;;-2.10;99.90;;;;;;5111302;28;20034;-69
2021/12/21 07:04:36;;;;;;;6.70;2.65;;;-2.10;99.90;;;;;;5093121;28;20077;-69
2021/12/21 07:07:02;;;;;;;5.45;2.40;;;-2.00;99.90;;;;;;5111267;28;20036;-69
2021/12/21 07:09:37;;;;;;;5.05;2.30;;;-2.10;99.90;;;;;;5113386;28;20519;-69
2021/12/21 07:12:28;;;;;;;6.95;2.50;;;-2.10;99.90;;;;;;5092839;28;20123;-69
2021/12/21 07:20:22;;;;;;;6.75;2.95;;;-2.10;99.90;;;;;;5108453;28;20388;-69
2021/12/21 07:22:48;;;;;;;6.72;2.83;;;-2.10;99.90;;;;;;5107574;28;20249;-69
2021/12/21 07:25:13;;;;;;;7.88;2.83;;;-2.10;99.90;;;;;;5113573;28;20117;-69
2021/12/21 07:27:39;;;;;;;6.88;2.67;;;-2.10;99.90;;;;;;5094585;28;20035;-69
2021/12/21 07:30:06;;;;;;;6.45;2.50;;;-2.10;99.90;;;;;;5096654;28;20142;-69
2021/12/21 07:32:32;;;;;;;6.47;2.80;;;-2.10;99.90;;;;;;5092253;28;20035;-69
2021/12/21 07:34:58;;;;;;;6.93;2.50;;;-2.10;99.90;;;;;;5103995;28;20050;-69
2021/12/21 07:37:25;;;;;;;6.40;2.30;;;-2.20;99.90;;;;;;5112840;28;20048;-69
2021/12/21 07:39:52;;;;;;;6.90;2.50;;;-2.10;99.90;;;;;;5110644;28;20040;-69
2021/12/21 07:42:19;;;;;;;6.00;2.40;;;-2.10;99.90;;;;;;5095099;28;20100;-69
2021/12/21 07:44:45;;;;;;;7.13;2.78;;;-2.10;99.90;;;;;;5107414;28;20110;-69
2021/12/21 07:47:11;;;;;;;9.48;3.53;;;-2.20;99.90;;;;;;5090519;28;20043;-69
2021/12/21 07:49:37;;;;;;;6.28;2.63;;;-2.30;99.90;;;;;;5107642;28;20036;-69
2021/12/21 07:52:07;;;;;;;6.70;2.50;;;-2.50;99.90;;;;;;5096336;28;20488;-69
2021/12/21 07:54:33;;;;;;;7.57;2.40;;;-2.50;99.90;;;;;;5111806;28;20031;-69
2021/12/21 07:56:58;;;;;;;8.18;2.50;;;-2.50;99.90;;;;;;5112889;28;20475;-69
2021/12/21 07:59:24;;;;;;;7.13;2.85;;;-2.50;99.90;;;;;;5111207;28;20032;-69
2021/12/21 08:01:50;;;;;;;4.82;2.45;;;-2.50;99.90;;;;;;5110968;28;20024;-69
2021/12/21 08:04:16;;;;;;;5.75;2.30;;;-2.40;99.90;;;;;;5095762;28;20403;-69
2021/12/21 08:06:45;;;;;;;9.32;2.88;;;-2.30;99.90;;;;;;5094233;28;20063;-69
2021/12/21 08:09:10;;;;;;;5.38;2.28;;;-2.40;99.90;;;;;;5110725;28;20042;-69
2021/12/21 08:14:03;;;;;;;7.18;2.40;;;-2.40;99.90;;;;;;5113088;28;20554;-70
2021/12/21 08:16:29;;;;;;;7.57;2.30;;;-2.30;99.90;;;;;;5110426;28;20047;-69
2021/12/21 08:18:55;;;;;;;6.15;2.55;;;-2.30;99.90;;;;;;5095532;28;20142;-69
2021/12/21 08:21:23;;;;;;;6.40;2.30;;;-2.30;99.90;;;;;;5111807;28;20579;-70
2021/12/21 08:23:48;;;;;;;5.65;2.13;;;-2.30;99.90;;;;;;5094288;28;20046;-77
2021/12/21 08:26:14;;;;;;;6.18;2.60;;;-2.10;99.90;;;;;;5145232;27;20043;-75
2021/12/21 08:28:40;;;;;;;9.68;3.40;;;-1.70;99.90;;;;;;5113759;27;20042;-69
2021/12/21 08:31:12;;;;;;;10.02;4.85;;;-1.30;99.90;;;;;;5110433;28;20061;-70
2021/12/21 08:33:39;;;;;;;14.90;8.13;;;-1.30;99.90;;;;;;5093400;28;20370;-70
2021/12/21 08:36:06;;;;;;;9.35;3.97;;;-1.30;99.90;;;;;;5091862;28;20388;-70
2021/12/21 08:38:33;;;;;;;9.13;3.67;;;-1.30;99.90;;;;;;5089747;28;20436;-70
2021/12/21 08:40:59;;;;;;;7.40;2.78;;;-1.30;99.90;;;;;;5093595;28;20039;-70
2021/12/21 08:43:28;;;;;;;8.00;3.20;;;-1.30;99.90;;;;;;5110349;28;20400;-70
2021/12/21 08:45:55;;;;;;;8.05;3.00;;;-1.40;99.90;;;;;;5106542;28;20039;-70
2021/12/21 08:48:22;;;;;;;6.55;2.67;;;-1.40;99.90;;;;;;5095301;28;20054;-70
2021/12/21 08:50:50;;;;;;;7.10;2.80;;;-1.40;99.90;;;;;;5093858;28;20165;-70
2021/12/21 08:53:16;;;;;;;11.25;4.25;;;-1.40;99.90;;;;;;5095241;28;20127;-70
2021/12/21 08:55:43;;;;;;;14.65;5.90;;;-1.50;99.90;;;;;;5109836;28;20036;-70
2021/12/21 08:58:10;;;;;;;15.45;7.43;;;-1.50;99.90;;;;;;5094830;28;20039;-70
2021/12/21 09:00:37;;;;;;;12.82;6.40;;;-1.50;99.90;;;;;;5109990;28;20085;-70
2021/12/21 09:03:04;;;;;;;12.82;5.28;;;-1.50;99.90;;;;;;5111936;28;20054;-70
2021/12/21 09:05:31;;;;;;;11.15;4.40;;;-1.50;99.90;;;;;;5089824;28;20032;-70
2021/12/21 09:07:58;;;;;;;9.50;4.00;;;-1.50;99.90;;;;;;5110744;28;20032;-70
2021/12/21 09:10:25;;;;;;;11.30;4.40;;;-1.40;99.90;;;;;;5104347;28;20032;-70
2021/12/21 09:12:51;;;;;;;10.52;4.22;;;-1.40;99.90;;;;;;5091847;28;20118;-70
2021/12/21 09:15:18;;;;;;;10.73;4.10;;;-1.50;99.90;;;;;;5110532;28;20036;-70
2021/12/21 09:17:45;;;;;;;10.70;4.20;;;-1.50;99.90;;;;;;5092631;28;20031;-70
2021/12/21 09:20:13;;;;;;;11.85;4.38;;;-1.50;99.90;;;;;;5093054;28;20154;-70
2021/12/21 09:22:39;;;;;;;10.43;3.97;;;-1.40;99.90;;;;;;5110220;28;20126;-70
2021/12/21 09:25:06;;;;;;;10.85;4.10;;;-1.40;99.90;;;;;;5111946;28;20399;-70
2021/12/21 09:27:31;;;;;;;8.85;4.10;;;-1.40;99.90;;;;;;5110491;28;20036;-70
2021/12/21 09:29:57;;;;;;;9.30;3.90;;;-1.30;99.90;;;;;;5111762;28;20039;-70
2021/12/21 09:32:25;;;;;;;9.13;3.78;;;-1.30;99.90;;;;;;5111429;28;20141;-70
2021/12/21 09:34:51;;;;;;;8.93;3.95;;;-1.30;99.90;;;;;;5088922;28;20038;-69
2021/12/21 09:37:20;;;;;;;9.52;3.97;;;-1.30;99.90;;;;;;5108392;28;20063;-70
2021/12/21 09:39:48;;;;;;;10.98;4.18;;;-1.20;99.90;;;;;;5094585;28;20040;-70
2021/12/21 09:42:18;;;;;;;10.05;5.00;;;-1.20;99.90;;;;;;5107088;28;20023;-70
2021/12/21 09:44:44;;;;;;;11.23;4.60;;;-1.20;99.90;;;;;;5091797;28;20048;-70
2021/12/21 09:47:11;;;;;;;12.40;4.90;;;-1.20;99.90;;;;;;5093265;28;20098;-70
2021/12/21 09:49:38;;;;;;;8.85;4.13;;;-1.10;99.90;;;;;;5108775;28;20126;-70
2021/12/21 09:52:05;;;;;;;11.25;5.07;;;-1.00;99.90;;;;;;5110652;28;20100;-70
2021/12/21 09:54:33;;;;;;;13.45;5.68;;;-0.90;99.90;;;;;;5093305;28;20083;-70
2021/12/21 09:56:59;;;;;;;11.52;5.35;;;-0.80;99.90;;;;;;5110753;28;20036;-70
2021/12/21 09:59:25;;;;;;;11.00;5.30;;;-0.70;99.90;;;;;;5110265;28;20043;-70
2021/12/21 10:01:51;;;;;;;10.90;5.38;;;-0.70;99.90;;;;;;5110516;28;20044;-70
2021/12/21 10:04:18;;;;;;;11.75;5.85;;;-0.60;99.90;;;;;;5106928;28;20042;-70
2021/12/21 10:06:50;;;;;;;10.25;5.72;;;-0.50;99.90;;;;;;5110823;28;20040;-70
2021/12/21 10:09:18;;;;;;;10.68;5.78;;;-0.40;99.90;;;;;;5093556;28;20043;-70
2021/12/21 10:11:48;;;;;;;10.32;5.95;;;-0.50;99.90;;;;;;5108477;28;20027;-70
2021/12/21 10:14:17;;;;;;;13.02;6.13;;;-0.50;99.90;;;;;;5091810;28;20039;-70
2021/12/21 10:16:45;;;;;;;13.18;5.90;;;-0.40;99.90;;;;;;5091977;28;20043;-70
2021/12/21 10:19:23;;;;;;;11.57;5.45;;;-0.40;99.90;;;;;;5113472;28;20039;-70
2021/12/21 10:21:48;;;;;;;13.45;6.28;;;-0.30;99.90;;;;;;5096639;28;20071;-70
2021/12/21 10:24:27;;;;;;;11.32;6.38;;;-0.10;99.90;;;;;;5112927;28;20093;-70
2021/12/21 10:27:04;;;;;;;12.18;5.90;;;0.00;99.90;;;;;;5097563;28;20047;-70
2021/12/21 10:29:50;;;;;;;13.30;6.60;;;0.10;99.90;;;;;;5113141;28;20047;-70
2021/12/21 10:32:17;;;;;;;12.63;6.65;;;0.20;99.90;;;;;;5113922;28;20032;-70
2021/12/21 10:34:51;;;;;;;15.60;6.82;;;0.40;99.90;;;;;;5108565;28;20036;-70
2021/12/21 10:37:24;;;;;;;14.07;7.78;;;0.50;99.90;;;;;;5097064;28;20067;-70
2021/12/21 10:40:03;;;;;;;13.65;7.82;;;0.60;99.90;;;;;;5112425;28;20032;-70
2021/12/21 10:42:29;;;;;;;16.10;8.20;;;0.80;99.90;;;;;;5094195;28;20492;-71
2021/12/21 10:45:05;;;;;;;11.15;7.15;;;0.80;99.90;;;;;;5094322;28;20115;-71
2021/12/21 10:47:33;;;;;;;13.35;7.30;;;1.00;99.90;;;;;;5096632;28;20035;-71
2021/12/21 10:49:59;;;;;;;15.40;8.52;;;1.10;99.90;;;;;;5093485;28;20472;-71
2021/12/21 10:52:25;;;;;;;13.90;9.02;;;1.20;99.90;;;;;;5113779;28;20047;-71
2021/12/21 10:54:51;;;;;;;14.40;8.82;;;1.30;99.90;;;;;;5112626;28;20027;-71
2021/12/21 10:57:22;;;;;;;14.65;8.57;;;1.50;99.90;;;;;;5092049;28;20043;-71
2021/12/21 10:59:50;;;;;;;16.33;9.30;;;1.60;99.90;;;;;;5113888;28;20063;-71
2021/12/21 11:02:32;;;;;;;15.73;8.70;;;1.80;99.90;;;;;;5110340;28;20027;-71
2021/12/21 11:05:10;;;;;;;15.27;8.38;;;1.90;99.90;;;;;;5146462;27;20381;-71
2021/12/21 11:07:45;;;;;;;14.48;8.32;;;1.90;99.90;;;;;;5112031;28;20041;-71
2021/12/21 11:10:27;;;;;;;13.38;8.18;;;2.00;99.90;;;;;;5096568;28;20111;-71
2021/12/21 11:12:58;;;;;;;12.63;7.72;;;2.10;99.90;;;;;;5092493;28;20388;-71
2021/12/21 11:15:29;;;;;;;14.23;8.15;;;2.10;99.90;;;;;;5112013;28;20040;-71
2021/12/21 11:17:59;;;;;;;14.90;8.80;;;2.10;99.90;;;;;;5113429;28;20039;-71
2021/12/21 11:20:27;;;;;;;14.90;6.85;;;2.10;99.90;;;;;;5108137;28;20479;-71
2021/12/21 11:22:54;;;;;;;11.90;6.78;;;2.10;99.90;;;;;;5093719;28;20169;-71
2021/12/21 11:25:22;;;;;;;12.38;6.38;;;2.10;99.90;;;;;;5112354;28;20043;-71
2021/12/21 11:27:48;;;;;;;13.13;6.45;;;2.10;99.90;;;;;;5111204;28;20035;-71
2021/12/21 11:30:17;;;;;;;12.25;6.38;;;2.10;99.90;;;;;;5092206;28;20036;-71
2021/12/21 11:32:49;;;;;;;12.40;7.95;;;2.20;99.90;;;;;;5111955;28;20083;-71
2021/12/21 11:37:48;;;;;;;12.73;6.75;;;2.20;99.90;;;;;;5107469;28;20012;-70
2021/12/21 11:40:17;;;;;;;11.00;6.18;;;2.20;99.90;;;;;;5110073;28;20054;-71
2021/12/21 11:42:59;;;;;;;12.27;6.80;;;2.20;99.90;;;;;;5110488;28;20074;-70
2021/12/21 11:45:45;;;;;;;11.82;6.35;;;2.20;99.90;;;;;;5091593;28;20035;-70
2021/12/21 11:48:10;;;;;;;12.85;6.75;;;2.20;99.90;;;;;;5094471;28;20077;-70
2021/12/21 11:50:38;;;;;;;11.32;6.38;;;2.20;99.90;;;;;;5088794;28;20063;-71
2021/12/21 11:53:10;;;;;;;10.63;6.25;;;2.20;99.90;;;;;;5112612;28;20181;-71
2021/12/21 11:55:40;;;;;;;11.05;6.03;;;2.20;99.90;;;;;;5095641;28;20031;-71
2021/12/21 11:58:26;;;;;;;11.30;6.35;;;2.10;99.90;;;;;;5112062;28;20039;-71
2021/12/21 12:00:57;;;;;;;10.77;5.50;;;2.20;99.90;;;;;;5093021;28;20051;-71
2021/12/21 12:03:26;;;;;;;11.05;5.93;;;2.30;99.90;;;;;;5092843;28;20508;-70
2021/12/21 12:05:59;;;;;;;13.60;6.43;;;2.30;99.90;;;;;;5093733;28;20041;-70
2021/12/21 12:08:28;;;;;;;11.93;6.50;;;2.30;99.90;;;;;;5105684;28;20031;-70
2021/12/21 12:11:00;;;;;;;13.85;6.03;;;2.20;99.90;;;;;;5108200;28;20399;-70
2021/12/21 12:13:40;;;;;;;11.13;6.20;;;2.20;99.90;;;;;;5093032;28;20616;-71
2021/12/21 12:16:11;;;;;;;10.18;5.80;;;2.30;99.90;;;;;;5111828;28;20046;-70
2021/12/21 12:18:45;;;;;;;12.20;6.40;;;2.20;99.90;;;;;;5105781;28;20043;-71
2021/12/21 12:21:13;;;;;;;11.90;6.45;;;2.10;99.90;;;;;;5095140;28;20043;-70
2021/12/21 12:23:52;;;;;;;15.85;6.72;;;2.10;99.90;;;;;;5089180;28;20043;-70
2021/12/21 12:26:36;;;;;;;12.35;6.20;;;2.00;99.90;;;;;;5107870;28;20544;-70
2021/12/21 12:29:14;;;;;;;11.73;6.07;;;2.00;99.90;;;;;;5111592;28;20084;-70
2021/12/21 12:31:42;;;;;;;13.18;6.43;;;2.20;99.90;;;;;;5092562;28;20128;-70
2021/12/21 12:34:08;;;;;;;12.07;6.13;;;2.20;99.90;;;;;;5094894;28;20510;-70
2021/12/21 12:36:35;;;;;;;10.07;5.80;;;2.10;99.90;;;;;;5119583;27;20047;-70
2021/12/21 12:39:00;;;;;;;15.27;7.03;;;2.10;99.90;;;;;;5095672;28;20039;-70
2021/12/21 12:41:26;;;;;;;11.70;6.88;;;2.20;99.90;;;;;;5092120;28;20042;-70
2021/12/21 12:43:51;;;;;;;12.88;6.57;;;2.10;99.90;;;;;;5094451;28;20052;-70
2021/12/21 12:46:26;;;;;;;11.25;6.00;;;2.10;99.90;;;;;;5112337;28;20254;-70
2021/12/21 12:48:52;;;;;;;11.15;5.82;;;2.10;99.90;;;;;;5110773;28;20043;-71
2021/12/21 12:51:29;;;;;;;11.75;6.13;;;2.20;99.90;;;;;;5094097;28;20032;-70
2021/12/21 12:53:56;;;;;;;16.27;6.07;;;2.20;99.90;;;;;;5110026;28;20373;-70
2021/12/21 12:56:21;;;;;;;12.45;5.55;;;2.20;99.90;;;;;;5109321;28;20489;-71
2021/12/21 12:58:55;;;;;;;11.43;5.50;;;2.20;99.90;;;;;;5110673;28;20032;-70
2021/12/21 13:01:26;;;;;;;11.98;7.18;;;2.30;99.90;;;;;;5092382;28;20039;-70
2021/12/21 13:03:55;;;;;;;15.13;5.85;;;2.40;99.90;;;;;;5092272;28;20384;-70
2021/12/21 13:06:24;;;;;;;12.63;5.80;;;2.50;99.90;;;;;;5092698;28;20502;-70
2021/12/21 13:08:49;;;;;;;14.93;6.30;;;2.60;99.90;;;;;;5094814;28;20043;-70
2021/12/21 13:11:36;;;;;;;14.20;6.28;;;2.70;99.90;;;;;;5108831;28;20048;-70
2021/12/21 13:14:03;;;;;;;14.90;6.03;;;2.80;99.90;;;;;;5110854;28;20054;-70
2021/12/21 13:16:34;;;;;;;11.32;5.53;;;2.90;99.90;;;;;;5111033;28;20032;-70
2021/12/21 13:19:08;;;;;;;11.45;5.57;;;3.00;99.90;;;;;;5109078;28;20050;-70
2021/12/21 13:21:51;;;;;;;13.60;6.18;;;3.00;99.90;;;;;;5125110;27;20036;-70
2021/12/21 13:24:20;;;;;;;13.43;6.10;;;3.00;99.90;;;;;;5094999;28;20046;-70
2021/12/21 13:26:55;;;;;;;13.15;5.72;;;3.00;99.90;;;;;;5091899;28;20028;-70
2021/12/21 13:29:23;;;;;;;11.18;5.53;;;3.00;99.90;;;;;;5092957;28;20039;-70
2021/12/21 13:31:51;;;;;;;13.68;5.90;;;2.90;99.90;;;;;;5108670;28;20047;-70
2021/12/21 13:34:18;;;;;;;10.77;5.82;;;3.00;99.90;;;;;;5112018;28;20035;-70
2021/12/21 13:36:47;;;;;;;10.40;5.88;;;3.00;99.90;;;;;;5108857;28;20054;-70
2021/12/21 13:39:27;;;;;;;9.57;5.30;;;2.90;99.90;;;;;;5111769;28;20448;-72
2021/12/21 13:42:02;;;;;;;12.50;5.20;;;2.90;99.90;;;;;;5109352;28;20076;-70
2021/12/21 13:44:35;;;;;;;12.93;5.47;;;2.90;99.90;;;;;;5089374;28;20057;-71
2021/12/21 13:47:43;;;;;;;11.88;5.78;;;2.90;99.90;;;;;;5089639;28;20071;-70
2021/12/21 13:50:15;;;;;;;11.13;5.95;;;3.00;99.90;;;;;;5085989;28;20407;-70
2021/12/21 13:52:45;;;;;;;;;;;2.90;99.90;;;;;;5098599;28;20048;-70
2021/12/21 13:55:27;;;;;;;10.68;5.07;;;2.90;99.90;;;;;;5097724;28;19966;-71
2021/12/21 13:57:55;;;;;;;10.55;5.97;;;2.90;99.90;;;;;;5095166;28;23148;-70
2021/12/21 14:00:26;;;;;;;9.98;5.78;;;2.90;99.90;;;;;;5113857;28;20560;-70
2021/12/21 14:03:02;;;;;;;11.60;5.53;;;2.80;99.90;;;;;;5111266;28;20043;-70
2021/12/21 14:05:41;;;;;;;12.77;6.25;;;2.70;99.90;;;;;;5112373;28;20058;-70
2021/12/21 14:08:07;;;;;;;10.77;5.07;;;2.70;99.90;;;;;;5112035;28;20480;-70
2021/12/21 14:10:41;;;;;;;13.63;6.38;;;2.60;99.90;;;;;;5117523;27;20487;-70